Time;durP1;ratioP1;P1;durP2;ratioP2;P2;SDS_P1;SDS_P2;PMS_P1;PMS_P2;Temp;Humidity;BMP_temperature;BMP_pressure;BME280_temperature;BME280_humidity;BME280_pressure;Samples;Min_cycle;Max_cycle;Signal;HPM_P1;HPM_P2
2022/02/06 00:02:28;;;;;;;10.82;3.75;;;;;;;10.31;72.51;101778.16;5123697;27;20039;-76
2022/02/06 00:04:55;;;;;;;10.18;3.25;;;;;;;10.37;73.13;101766.06;5123273;27;20047;-76
2022/02/06 00:07:23;;;;;;;9.13;3.28;;;;;;;10.45;73.25;101766.31;5102745;28;20066;-76
2022/02/06 00:09:51;;;;;;;11.80;4.47;;;;;;;10.54;73.38;101768.38;5113363;27;20499;-76
2022/02/06 00:12:19;;;;;;;11.02;3.42;;;;;;;10.57;73.40;101766.69;5123009;27;20054;-76
2022/02/06 00:14:46;;;;;;;10.48;3.15;;;;;;;10.60;73.55;101763.28;5104531;27;20404;-77
2022/02/06 00:17:15;;;;;;;11.60;2.47;;;;;;;10.61;73.48;101770.34;5123208;27;20039;-76
2022/02/06 00:19:44;;;;;;;7.32;1.77;;;;;;;10.62;73.33;101769.50;5123004;27;20054;-76
2022/02/06 00:22:24;;;;;;;8.60;2.00;;;;;;;10.59;73.45;101767.66;5125374;27;20038;-76
2022/02/06 00:25:06;;;;;;;5.07;1.90;;;;;;;10.56;73.46;101767.56;5116167;28;20040;-77
2022/02/06 00:27:43;;;;;;;6.32;1.70;;;;;;;10.56;73.59;101764.94;5126505;27;20513;-76
2022/02/06 00:30:21;;;;;;;10.65;5.75;;;;;;;10.58;73.31;101764.97;5088514;28;20046;-76
2022/02/06 00:32:53;;;;;;;7.55;2.72;;;;;;;10.53;74.22;101772.75;5089109;28;20051;-76
2022/02/06 00:35:32;;;;;;;16.33;9.00;;;;;;;10.51;74.17;101762.97;5090436;28;20435;-77
2022/02/06 00:38:08;;;;;;;16.13;7.38;;;;;;;10.39;73.98;101769.66;5105769;28;20135;-77
2022/02/06 00:40:54;;;;;;;17.58;2.95;;;;;;;10.35;73.90;101767.78;5090425;28;20483;-76
2022/02/06 00:43:22;;;;;;;10.75;3.28;;;;;;;10.34;73.94;101773.91;5109907;27;20042;-76
2022/02/06 00:45:50;;;;;;;11.25;4.63;;;;;;;10.31;73.86;101771.16;5110503;28;20072;-76
2022/02/06 00:48:21;;;;;;;6.65;2.55;;;;;;;10.26;73.73;101769.22;5109410;28;20040;-77
2022/02/06 00:51:01;;;;;;;21.05;11.45;;;;;;;10.27;73.95;101763.09;5091787;28;20418;-76
2022/02/06 00:53:29;;;;;;;55.00;36.60;;;;;;;10.22;73.97;101762.94;5109587;28;20077;-76
2022/02/06 00:55:57;;;;;;;8.98;3.00;;;;;;;10.21;74.19;101757.63;5111057;27;20036;-76
2022/02/06 00:58:24;;;;;;;9.82;4.35;;;;;;;10.11;74.27;101756.34;5109260;27;20040;-76
2022/02/06 01:00:52;;;;;;;13.13;5.72;;;;;;;9.98;74.22;101754.16;5109158;28;20069;-77
2022/02/06 01:03:20;;;;;;;8.82;3.75;;;;;;;9.95;74.70;101748.78;5109729;27;20046;-76
2022/02/06 01:05:48;;;;;;;11.75;3.17;;;;;;;9.97;74.99;101747.13;5108001;28;20089;-76
2022/02/06 01:08:17;;;;;;;10.57;2.30;;;;;;;9.94;74.72;101739.97;5110066;27;20048;-76
2022/02/06 01:10:45;;;;;;;6.85;3.22;;;;;;;9.87;74.72;101734.44;5109003;27;20123;-76
2022/02/06 01:13:19;;;;;;;11.18;4.38;;;;;;;9.88;75.07;101741.50;5109099;27;20044;-76
2022/02/06 01:15:53;;;;;;;12.40;4.82;;;;;;;9.94;74.91;101741.72;5108536;28;20087;-76
2022/02/06 01:18:30;;;;;;;17.38;8.68;;;;;;;9.93;74.77;101739.91;5108564;28;20043;-77
2022/02/06 01:21:07;;;;;;;9.73;4.88;;;;;;;9.85;74.50;101730.84;5109997;28;20044;-77
2022/02/06 01:23:45;;;;;;;8.75;3.50;;;;;;;9.79;74.54;101730.63;5104347;28;20047;-76
2022/02/06 01:26:24;;;;;;;14.82;5.35;;;;;;;9.79;75.10;101731.53;5107905;28;20499;-76
2022/02/06 01:29:04;;;;;;;13.30;5.85;;;;;;;9.96;74.93;101725.13;5110111;27;20067;-76
2022/02/06 01:31:44;;;;;;;13.13;3.55;;;;;;;10.05;74.82;101740.31;5108584;28;20040;-76
2022/02/06 01:34:15;;;;;;;9.43;2.55;;;;;;;10.06;74.68;101730.69;5090534;28;20123;-75
2022/02/06 01:36:47;;;;;;;11.13;2.03;;;;;;;10.10;75.05;101727.31;5124624;27;20497;-76
2022/02/06 01:39:29;;;;;;;12.55;1.95;;;;;;;10.13;74.92;101719.47;5107813;28;20048;-76
2022/02/06 01:42:00;;;;;;;11.13;3.08;;;;;;;10.07;74.89;101720.19;5107877;28;20119;-76
2022/02/06 01:44:42;;;;;;;9.48;2.72;;;;;;;9.98;74.94;101723.41;5107863;28;20055;-76
2022/02/06 02:01:25;;;;;;;18.05;6.70;;;;;;;9.96;74.46;101718.94;5087221;28;20400;-76
2022/02/06 02:04:02;;;;;;;13.52;3.83;;;;;;;9.92;74.56;101715.28;5086227;28;20148;-76
2022/02/06 02:15:25;;;;;;;14.05;5.60;;;;;;;9.99;75.08;101716.38;5105868;28;20096;-76
2022/02/06 02:18:24;;;;;;;11.35;5.75;;;;;;;9.98;75.01;101715.50;5081152;28;20047;-77
2022/02/06 02:29:54;;;;;;;14.43;4.00;;;;;;;10.23;75.25;101711.97;5108617;28;20044;-76
2022/02/06 02:46:11;;;;;;;5.72;1.88;;;;;;;10.41;75.58;101705.47;5087229;28;19926;-76
2022/02/06 02:48:42;;;;;;;7.25;1.90;;;;;;;10.50;76.06;101713.69;5107025;28;20119;-77
2022/02/06 02:51:11;;;;;;;12.07;2.42;;;;;;;10.59;75.99;101714.84;5108441;28;20039;-77
2022/02/06 02:53:47;;;;;;;6.63;2.10;;;;;;;10.58;75.97;101713.06;5108626;28;20047;-77
2022/02/06 02:56:27;;;;;;;8.65;3.05;;;;;;;10.56;76.06;101724.44;5108143;27;20104;-76
2022/02/06 02:59:04;;;;;;;9.65;3.17;;;;;;;10.47;75.91;101714.47;5106816;28;20044;-76
2022/02/06 03:01:36;;;;;;;8.48;4.05;;;;;;;10.38;76.15;101712.44;5124560;27;20039;-76
2022/02/06 03:04:04;;;;;;;9.43;4.63;;;;;;;10.37;76.20;101722.97;5085976;28;20047;-76
2022/02/06 03:06:31;;;;;;;14.80;5.45;;;;;;;10.39;76.12;101726.53;5086936;28;20072;-76
2022/02/06 03:09:01;;;;;;;7.10;2.60;;;;;;;10.43;76.14;101722.25;5086252;28;20527;-76
2022/02/06 03:11:29;;;;;;;5.40;1.48;;;;;;;10.42;76.01;101728.38;5086285;28;20052;-76
2022/02/06 03:14:04;;;;;;;11.85;2.20;;;;;;;10.41;76.14;101724.84;5085140;28;20082;-76
2022/02/06 03:16:34;;;;;;;14.18;1.90;;;;;;;10.41;76.01;101726.59;5086820;28;20112;-76
2022/02/06 03:19:09;;;;;;;5.13;1.38;;;;;;;10.40;76.12;101725.69;5086020;28;20041;-76
2022/02/06 03:21:39;;;;;;;10.77;1.88;;;;;;;10.39;76.11;101727.44;5106330;28;20522;-76
2022/02/06 03:26:56;;;;;;;13.45;2.20;;;;;;;10.42;75.96;101724.00;5107425;28;20043;-76
2022/02/06 03:29:26;;;;;;;8.15;1.52;;;;;;;10.41;76.00;101727.47;5103834;28;20036;-76
2022/02/06 03:31:54;;;;;;;18.65;4.30;;;;;;;10.33;76.03;101739.53;5106386;28;20047;-76
2022/02/06 03:34:22;;;;;;;10.52;1.65;;;;;;;10.26;76.16;101732.25;5106577;28;20032;-76
2022/02/06 03:36:50;;;;;;;4.55;1.58;;;;;;;10.24;76.64;101729.56;5108078;28;20548;-76
2022/02/06 03:39:22;;;;;;;8.13;1.73;;;;;;;10.26;76.65;101735.78;5106416;28;20118;-76
2022/02/06 03:42:04;;;;;;;8.80;1.75;;;;;;;10.27;76.56;101736.69;5108197;28;20070;-76
2022/02/06 03:44:38;;;;;;;7.55;2.45;;;;;;;10.25;76.27;101744.56;5106731;28;20045;-76
2022/02/06 03:47:11;;;;;;;9.40;3.13;;;;;;;10.09;76.18;101743.97;5106056;28;20138;-75
2022/02/06 03:49:48;;;;;;;10.10;5.70;;;;;;;10.04;76.44;101741.19;5107439;28;20534;-76
2022/02/06 03:52:17;;;;;;;11.30;2.55;;;;;;;10.08;76.46;101744.81;5106591;28;20052;-76
2022/02/06 03:54:46;;;;;;;11.00;2.38;;;;;;;10.09;76.43;101750.16;5105974;28;20460;-76
2022/02/06 03:57:14;;;;;;;8.93;2.08;;;;;;;10.07;76.44;101743.94;5107535;28;20042;-76
2022/02/06 03:59:41;;;;;;;3.28;1.00;;;;;;;10.10;76.61;101737.88;5107394;28;20035;-76
2022/02/06 04:02:09;;;;;;;9.30;1.50;;;;;;;10.15;77.03;101750.34;5111377;28;20047;-76
2022/02/06 04:04:37;;;;;;;9.98;1.70;;;;;;;10.18;76.99;101758.41;5093406;28;20120;-75
2022/02/06 04:07:06;;;;;;;9.85;1.88;;;;;;;10.18;76.90;101755.75;5112081;28;20502;-76
2022/02/06 04:09:39;;;;;;;8.68;1.70;;;;;;;10.17;76.90;101748.72;5089845;28;20048;-76
2022/02/06 04:12:11;;;;;;;4.18;1.40;;;;;;;10.22;76.88;101762.03;5089194;28;20040;-76
2022/02/06 04:14:52;;;;;;;10.30;2.08;;;;;;;10.24;77.16;101766.50;5087962;28;20052;-76
2022/02/06 04:17:23;;;;;;;11.60;1.65;;;;;;;10.27;76.75;101771.91;5089817;28;20040;-76
2022/02/06 04:19:52;;;;;;;12.40;2.72;;;;;;;10.29;76.92;101774.59;5088630;28;20040;-76
2022/02/06 04:22:20;;;;;;;7.50;2.67;;;;;;;10.30;76.77;101769.38;5089077;28;20067;-76
2022/02/06 04:24:48;;;;;;;4.15;1.60;;;;;;;10.33;76.81;101780.03;5106415;28;20048;-76
2022/02/06 04:27:18;;;;;;;7.32;2.30;;;;;;;10.34;76.62;101787.09;5112907;27;20043;-77
2022/02/06 04:29:47;;;;;;;7.35;3.45;;;;;;;10.34;76.49;101795.00;5100834;28;20118;-76
2022/02/06 04:32:14;;;;;;;5.15;1.75;;;;;;;10.31;76.31;101792.25;5101408;28;20058;-76
2022/02/06 04:34:42;;;;;;;8.73;1.50;;;;;;;10.28;76.25;101791.28;5110507;28;20399;-76
2022/02/06 04:37:16;;;;;;;6.88;1.63;;;;;;;10.24;76.14;101789.38;5075503;28;20495;-75
2022/02/06 04:40:06;;;;;;;5.20;1.40;;;;;;;10.21;76.15;101798.09;5097729;27;20396;-76
2022/02/06 04:42:57;;;;;;;9.00;1.30;;;;;;;10.19;76.02;101797.13;5088781;28;20047;-76
2022/02/06 04:46:03;;;;;;;13.80;1.58;;;;;;;10.12;75.96;101800.38;5094441;28;20098;-76
2022/02/06 04:49:03;;;;;;;9.88;1.77;;;;;;;10.10;76.04;101801.19;5085373;28;20232;-76
2022/02/06 05:11:33;;;;;;;;;;;;;;;10.16;76.46;101802.28;5109354;27;20505;-76
2022/02/06 05:22:43;;;;;;;8.40;2.22;;;;;;;10.25;76.35;101821.09;5068417;28;20043;-76
2022/02/06 05:30:44;;;;;;;6.38;1.15;;;;;;;10.29;76.32;101838.84;5107356;28;20040;-76
2022/02/06 05:33:13;;;;;;;4.22;0.90;;;;;;;10.32;76.58;101840.66;5108022;28;20047;-76
2022/02/06 05:35:41;;;;;;;12.07;2.15;;;;;;;10.36;76.70;101845.22;5108204;28;20499;-76
2022/02/06 05:38:09;;;;;;;13.88;3.45;;;;;;;10.41;76.74;101845.38;5108624;28;20608;-76
2022/02/06 05:40:37;;;;;;;10.55;1.88;;;;;;;10.47;76.60;101848.22;5108488;28;20582;-76
2022/02/06 05:43:04;;;;;;;7.57;2.20;;;;;;;10.53;76.59;101849.31;5107890;28;20048;-76
2022/02/06 05:45:32;;;;;;;12.80;2.80;;;;;;;10.59;76.44;101852.16;5108228;28;20054;-76
2022/02/06 05:48:00;;;;;;;9.32;2.10;;;;;;;10.63;76.63;101848.75;5090786;28;20403;-76
2022/02/06 05:50:29;;;;;;;4.38;1.45;;;;;;;10.72;76.46;101850.81;5121893;27;20074;-76
2022/02/06 05:52:57;;;;;;;10.07;2.22;;;;;;;10.78;76.46;101856.28;5110234;27;20043;-76
2022/02/06 05:55:25;;;;;;;11.13;3.08;;;;;;;10.84;76.37;101848.53;5124335;27;20078;-76
2022/02/06 05:57:53;;;;;;;11.07;1.83;;;;;;;10.93;76.38;101854.13;5108582;27;20127;-76
2022/02/06 06:00:20;;;;;;;16.83;2.42;;;;;;;11.11;76.60;101853.81;5107964;27;20479;-76
2022/02/06 06:02:48;;;;;;;7.97;2.17;;;;;;;11.33;76.75;101855.38;5108808;27;20077;-76
2022/02/06 06:05:16;;;;;;;11.70;2.50;;;;;;;11.56;76.88;101851.63;5106915;28;20101;-76
2022/02/06 06:07:45;;;;;;;10.57;3.80;;;;;;;11.77;76.71;101854.94;5106983;28;20491;-76
2022/02/06 06:10:13;;;;;;;15.02;3.67;;;;;;;11.92;76.83;101859.75;5107539;28;20096;-76
2022/02/06 06:12:41;;;;;;;19.42;4.03;;;;;;;12.05;76.80;101858.34;5107283;28;20534;-76
2022/02/06 06:15:10;;;;;;;12.73;4.00;;;;;;;12.26;76.89;101864.22;5090822;28;20487;-76
2022/02/06 06:17:38;;;;;;;11.55;3.47;;;;;;;12.46;76.52;101875.34;5108989;28;20457;-77
2022/02/06 06:20:11;;;;;;;14.65;3.85;;;;;;;12.68;76.36;101875.00;5107513;28;20035;-77
2022/02/06 06:22:39;;;;;;;17.40;3.30;;;;;;;12.95;76.18;101866.81;5087703;28;20049;-76
2022/02/06 06:25:11;;;;;;;11.63;1.58;;;;;;;13.20;75.68;101869.22;5074040;28;20043;-77
2022/02/06 06:27:39;;;;;;;11.13;1.88;;;;;;;13.36;75.25;101863.41;5098343;28;20105;-76
2022/02/06 06:30:09;;;;;;;9.18;1.63;;;;;;;13.63;74.79;101864.84;5089572;28;20043;-76
2022/02/06 06:32:37;;;;;;;10.43;1.95;;;;;;;13.88;74.47;101864.47;5089783;28;20048;-76
2022/02/06 06:35:06;;;;;;;9.82;2.53;;;;;;;13.93;74.20;101860.16;5107216;28;20387;-75
2022/02/06 06:37:38;;;;;;;7.43;1.83;;;;;;;13.75;74.21;101859.78;5089706;28;20092;-76
2022/02/06 06:40:08;;;;;;;9.30;2.30;;;;;;;13.66;73.63;101857.84;5107229;28;20031;-76
2022/02/06 06:42:37;;;;;;;9.10;2.33;;;;;;;13.61;73.03;101854.19;5089629;28;20051;-76
2022/02/06 06:45:05;;;;;;;11.32;2.25;;;;;;;13.41;72.24;101848.47;5119676;27;20039;-76
2022/02/06 06:47:33;;;;;;;12.32;2.33;;;;;;;13.34;72.45;101858.91;5106800;28;20050;-77
2022/02/06 06:50:03;;;;;;;9.27;2.33;;;;;;;13.66;72.34;101857.84;5107014;28;20134;-75
2022/02/06 06:52:30;;;;;;;17.85;3.35;;;;;;;14.01;71.63;101852.34;5107038;28;20079;-76
2022/02/06 06:55:01;;;;;;;12.02;2.88;;;;;;;14.23;71.27;101862.50;5107481;28;20514;-76
2022/02/06 06:57:34;;;;;;;13.90;2.15;;;;;;;14.46;70.78;101866.50;5107652;28;20043;-76
2022/02/06 07:00:24;;;;;;;11.98;2.50;;;;;;;14.86;70.25;101870.72;5107683;27;20042;-76
2022/02/06 07:02:52;;;;;;;10.68;1.75;;;;;;;15.15;69.49;101865.84;5106749;28;20048;-78
2022/02/06 07:05:20;;;;;;;16.33;2.92;;;;;;;15.37;68.58;101873.25;5093395;28;20067;-76
2022/02/06 07:07:48;;;;;;;10.52;2.95;;;;;;;15.51;67.46;101870.78;5072003;28;20046;-77
2022/02/06 07:10:15;;;;;;;9.73;2.45;;;;;;;15.63;65.94;101870.97;5107008;28;20498;-76
2022/02/06 07:12:43;;;;;;;8.80;1.77;;;;;;;15.82;65.54;101864.09;5104856;28;20557;-76
2022/02/06 07:15:13;;;;;;;12.35;2.92;;;;;;;16.11;65.49;101875.09;5102631;28;20067;-76
2022/02/06 07:17:40;;;;;;;15.82;4.97;;;;;;;16.29;64.66;101872.59;5106765;28;20039;-73
2022/02/06 07:20:09;;;;;;;11.98;2.60;;;;;;;16.49;64.25;101875.47;5089852;28;20120;-74
2022/02/06 07:22:39;;;;;;;14.27;3.80;;;;;;;16.65;63.93;101880.09;5107541;28;20100;-74
2022/02/06 07:25:08;;;;;;;12.80;3.28;;;;;;;16.92;63.63;101869.66;5105911;28;20154;-75
2022/02/06 07:27:39;;;;;;;22.83;7.50;;;;;;;17.21;63.74;101869.84;5068471;28;20042;-75
2022/02/06 07:30:08;;;;;;;29.70;9.45;;;;;;;17.47;63.17;101870.88;5107172;28;20039;-73
2022/02/06 07:32:39;;;;;;;45.20;19.50;;;;;;;17.71;62.75;101878.16;5089279;28;20128;-74
2022/02/06 07:35:09;;;;;;;44.00;20.60;;;;;;;17.98;61.92;101876.47;5088978;28;20537;-75
2022/02/06 07:37:38;;;;;;;47.58;20.27;;;;;;;18.22;61.64;101888.13;5110793;28;20414;-75
2022/02/06 07:40:07;;;;;;;27.55;12.82;;;;;;;18.52;60.71;101881.91;5092732;28;20068;-74
2022/02/06 07:42:35;;;;;;;31.73;10.00;;;;;;;18.75;60.30;101883.75;5111569;28;20063;-75
2022/02/06 07:45:11;;;;;;;30.45;13.52;;;;;;;18.98;60.22;101892.66;5093228;28;20122;-75
2022/02/06 07:47:44;;;;;;;18.88;7.68;;;;;;;19.25;59.37;101892.63;5091685;28;20144;-74
2022/02/06 07:50:13;;;;;;;17.85;5.85;;;;;;;19.40;58.10;101889.91;5093026;28;20043;-75
2022/02/06 07:52:40;;;;;;;24.83;5.53;;;;;;;19.62;55.79;101890.78;5093028;28;20036;-75
2022/02/06 07:55:11;;;;;;;16.35;5.82;;;;;;;19.84;54.79;101897.81;5108250;28;20134;-74
2022/02/06 07:57:38;;;;;;;20.90;5.10;;;;;;;20.00;53.78;101890.63;5092052;28;20050;-75
2022/02/06 08:00:09;;;;;;;23.02;5.22;;;;;;;20.11;54.01;101895.91;5091935;28;20070;-75
2022/02/06 08:02:42;;;;;;;14.55;4.30;;;;;;;20.27;53.99;101881.53;5108064;28;20055;-75
2022/02/06 08:05:10;;;;;;;24.75;4.90;;;;;;;20.39;53.41;101889.53;5109287;27;20684;-74
2022/02/06 08:07:39;;;;;;;12.65;3.83;;;;;;;20.37;53.10;101887.75;5106057;28;20617;-77
2022/02/06 08:10:08;;;;;;;15.98;4.10;;;;;;;20.27;53.12;101884.22;5091947;27;20372;-75
2022/02/06 08:12:44;;;;;;;15.23;5.10;;;;;;;20.25;53.16;101892.25;5109727;27;20036;-74
2022/02/06 08:15:16;;;;;;;13.27;4.20;;;;;;;20.42;53.74;101891.28;5081479;28;20059;-75
2022/02/06 08:17:46;;;;;;;16.65;4.18;;;;;;;20.57;53.35;101896.53;5110809;28;20100;-74
2022/02/06 08:20:16;;;;;;;27.75;9.88;;;;;;;20.73;53.27;101892.84;5095023;28;20093;-75
2022/02/06 08:22:44;;;;;;;18.35;6.68;;;;;;;20.84;53.35;101899.00;5101307;28;20430;-75
2022/02/06 08:25:14;;;;;;;16.52;3.70;;;;;;;20.95;52.79;101899.81;5091366;28;20050;-75
2022/02/06 08:27:42;;;;;;;13.20;2.80;;;;;;;21.00;52.57;101894.41;5108660;28;20136;-74
2022/02/06 08:30:13;;;;;;;16.00;2.70;;;;;;;21.00;52.08;101891.72;5108556;28;20847;-75
2022/02/06 08:32:41;;;;;;;16.50;3.03;;;;;;;20.95;51.73;101896.22;5110418;28;20051;-75
2022/02/06 08:35:11;;;;;;;16.25;4.60;;;;;;;21.00;51.54;101889.03;5093776;27;20516;-74
2022/02/06 08:37:39;;;;;;;16.70;5.07;;;;;;;21.13;51.30;101900.56;5097831;28;20120;-75
2022/02/06 08:40:12;;;;;;;13.90;4.57;;;;;;;21.27;51.25;101896.84;5078438;28;20085;-75
2022/02/06 08:42:40;;;;;;;19.08;4.10;;;;;;;21.31;50.82;101892.34;5070101;28;20066;-74
2022/02/06 08:45:11;;;;;;;11.30;3.45;;;;;;;21.32;50.96;101899.50;5088982;28;20032;-75
2022/02/06 08:47:39;;;;;;;15.32;3.47;;;;;;;21.26;50.49;101899.56;5102601;28;20076;-75
2022/02/06 08:50:08;;;;;;;16.77;2.95;;;;;;;20.98;49.53;101894.41;5090396;28;20415;-75
2022/02/06 08:52:37;;;;;;;16.83;6.60;;;;;;;20.83;49.78;101902.59;5089960;28;20491;-75
2022/02/06 08:55:09;;;;;;;11.48;3.15;;;;;;;20.86;49.64;101909.75;5070740;28;20062;-75
2022/02/06 08:57:37;;;;;;;16.23;3.53;;;;;;;20.79;49.64;101908.91;5067730;28;20111;-75
2022/02/06 09:00:07;;;;;;;16.10;4.60;;;;;;;20.88;49.67;101906.13;5068026;28;20041;-75
2022/02/06 09:02:35;;;;;;;11.98;3.22;;;;;;;21.04;49.50;101905.09;5077795;28;20051;-75
2022/02/06 09:05:03;;;;;;;15.55;2.80;;;;;;;21.03;49.53;101905.13;5068794;28;21428;-76
2022/02/06 09:07:31;;;;;;;13.18;3.50;;;;;;;21.05;49.52;101903.31;5072102;28;20036;-75
2022/02/06 09:10:01;;;;;;;14.82;4.03;;;;;;;21.04;49.21;101914.94;5059377;28;20090;-75
2022/02/06 09:12:30;;;;;;;14.55;3.67;;;;;;;21.08;49.21;101914.91;5091357;28;20681;-75
2022/02/06 09:14:59;;;;;;;17.08;3.08;;;;;;;21.16;49.12;101916.66;5091233;28;20451;-75
2022/02/06 09:17:26;;;;;;;13.90;2.38;;;;;;;21.17;49.27;101919.34;5109959;28;20119;-75
2022/02/06 09:19:54;;;;;;;15.13;1.70;;;;;;;21.13;49.05;101911.31;5092177;28;20044;-75
2022/02/06 09:22:22;;;;;;;10.70;1.75;;;;;;;20.90;48.84;101919.53;5092020;28;20666;-76
2022/02/06 09:24:50;;;;;;;12.55;2.13;;;;;;;20.84;49.13;101908.88;5109316;28;20035;-75
2022/02/06 09:27:20;;;;;;;15.35;2.80;;;;;;;20.88;49.49;101910.59;5090830;28;20031;-76
2022/02/06 09:29:48;;;;;;;14.75;1.73;;;;;;;20.81;49.18;101911.56;5091074;28;20047;-75
2022/02/06 09:37:11;;;;;;;11.68;2.53;;;;;;;20.49;50.42;101895.69;5090893;28;20043;-74
2022/02/06 09:39:41;;;;;;;9.75;2.05;;;;;;;20.68;50.08;101895.56;5091203;28;20036;-77
2022/02/06 09:42:10;;;;;;;11.50;2.30;;;;;;;20.60;49.06;101894.75;5091363;28;20523;-76
2022/02/06 09:44:41;;;;;;;13.00;2.63;;;;;;;20.72;49.15;101892.84;5109436;28;20441;-74
2022/02/06 09:47:10;;;;;;;13.18;2.13;;;;;;;20.94;49.61;101878.34;5091065;28;20044;-74
2022/02/06 09:49:38;;;;;;;19.75;3.47;;;;;;;21.08;49.51;101887.16;5078891;28;20036;-75
2022/02/06 09:52:06;;;;;;;11.05;3.03;;;;;;;21.00;49.48;101883.69;5088438;28;20040;-73
2022/02/06 09:54:33;;;;;;;15.73;2.28;;;;;;;21.11;49.35;101879.09;5086167;28;20039;-75
2022/02/06 09:57:11;;;;;;;20.73;2.72;;;;;;;21.16;48.59;101884.44;5109580;28;20115;-74
2022/02/06 09:59:41;;;;;;;12.95;2.20;;;;;;;21.28;48.63;101884.31;5108051;28;20147;-73
2022/02/06 10:02:11;;;;;;;11.40;2.03;;;;;;;21.45;48.79;101882.34;5090060;28;20035;-74
2022/02/06 10:04:41;;;;;;;9.35;1.83;;;;;;;21.44;48.26;101881.44;5092143;28;20460;-75
2022/02/06 10:07:13;;;;;;;15.55;2.88;;;;;;;21.26;48.44;101876.28;5108867;28;20110;-75
2022/02/06 10:09:44;;;;;;;14.73;2.60;;;;;;;21.32;48.51;101873.53;5090316;28;20056;-73
2022/02/06 10:12:15;;;;;;;11.77;1.80;;;;;;;21.36;48.44;101872.56;5090671;28;20052;-75
2022/02/06 10:14:44;;;;;;;15.32;2.90;;;;;;;21.26;48.64;101861.97;5108329;28;20643;-74
2022/02/06 10:17:12;;;;;;;11.88;1.95;;;;;;;21.33;49.07;101864.53;5107678;28;20047;-74
2022/02/06 10:19:50;;;;;;;10.55;1.42;;;;;;;21.41;48.90;101859.97;5108784;28;20067;-74
2022/02/06 10:22:24;;;;;;;10.98;1.65;;;;;;;21.34;48.88;101858.25;5099946;28;20032;-74
2022/02/06 10:25:10;;;;;;;13.82;2.15;;;;;;;21.13;48.67;101858.47;5109239;27;20075;-74
2022/02/06 10:27:57;;;;;;;13.45;1.90;;;;;;;20.86;48.88;101859.63;5108211;27;20058;-74
2022/02/06 10:30:39;;;;;;;11.68;2.13;;;;;;;20.96;49.32;101860.44;5108900;27;20543;-74
2022/02/06 10:33:08;;;;;;;13.77;2.25;;;;;;;21.06;49.31;101863.03;5105698;28;20110;-74
2022/02/06 10:35:37;;;;;;;12.70;1.88;;;;;;;21.01;48.95;101855.88;5107597;28;20039;-74
2022/02/06 10:38:16;;;;;;;10.10;2.20;;;;;;;21.11;48.64;101851.34;5108919;27;20128;-74
2022/02/06 10:40:46;;;;;;;17.00;2.60;;;;;;;21.17;48.79;101836.06;5106979;28;20043;-74
2022/02/06 10:43:15;;;;;;;16.30;3.10;;;;;;;21.32;48.45;101838.59;5107218;28;20047;-73
2022/02/06 10:45:44;;;;;;;13.93;2.85;;;;;;;21.46;47.96;101833.94;5107052;28;20050;-74
2022/02/06 10:48:23;;;;;;;12.88;1.70;;;;;;;21.38;47.38;101829.59;5106280;28;20114;-75
2022/02/06 10:50:51;;;;;;;12.73;2.55;;;;;;;21.11;47.99;101829.84;5107323;28;20040;-74
2022/02/06 10:53:20;;;;;;;16.55;2.17;;;;;;;21.22;47.86;101822.59;5107363;28;20112;-74
2022/02/06 10:56:00;;;;;;;11.05;2.20;;;;;;;21.34;47.12;101833.19;5105655;28;20134;-74
2022/02/06 10:58:31;;;;;;;15.02;2.08;;;;;;;21.36;47.52;101826.91;5106698;28;20045;-74
2022/02/06 11:01:06;;;;;;;17.95;2.90;;;;;;;21.40;48.26;101825.06;5106872;28;20036;-74
2022/02/06 11:03:36;;;;;;;10.65;2.08;;;;;;;21.51;47.96;101830.31;5106284;28;20059;-74
2022/02/06 11:06:23;;;;;;;9.25;1.85;;;;;;;21.37;47.92;101826.00;5107541;28;20051;-74
2022/02/06 11:08:51;;;;;;;11.93;2.05;;;;;;;21.18;48.26;101819.06;5107552;28;20096;-74
2022/02/06 11:11:19;;;;;;;12.45;1.73;;;;;;;20.96;48.28;101817.47;5106440;28;20453;-74
2022/02/06 11:13:47;;;;;;;9.57;1.88;;;;;;;20.53;48.14;101812.50;5106664;28;20043;-74
2022/02/06 11:16:20;;;;;;;11.93;2.20;;;;;;;20.25;48.74;101818.94;5108165;28;20032;-74
2022/02/06 11:18:54;;;;;;;17.45;2.72;;;;;;;20.05;49.10;101818.19;5106691;28;20052;-74
2022/02/06 11:21:23;;;;;;;17.08;2.40;;;;;;;19.88;49.47;101810.28;5123887;28;20040;-74
2022/02/06 11:23:55;;;;;;;13.88;2.22;;;;;;;19.71;49.72;101810.34;5106648;28;20115;-73
2022/02/06 11:26:24;;;;;;;12.95;2.30;;;;;;;19.50;50.67;101813.13;5107534;28;20040;-74
2022/02/06 11:28:54;;;;;;;22.95;5.32;;;;;;;19.35;50.72;101816.75;5108119;28;20052;-74
2022/02/06 11:31:24;;;;;;;27.35;9.65;;;;;;;19.24;51.08;101813.19;5104892;28;20402;-73
2022/02/06 11:33:52;;;;;;;15.80;5.63;;;;;;;19.19;51.42;101817.66;5121658;27;20054;-74
2022/02/06 11:42:59;;;;;;;15.75;3.42;;;;;;;19.18;51.15;101817.66;5108994;28;20074;-73
2022/02/06 11:45:07;;;;;;;12.52;3.70;;;;;;;19.11;51.74;101820.34;5104008;28;20081;-74
2022/02/06 11:47:40;;;;;;;;;;;;;;;18.99;52.82;101817.72;5086862;28;20737;-75
2022/02/06 11:50:11;;;;;;;14.95;3.25;;;;;;;18.95;53.19;101823.09;5081856;28;19928;-74
2022/02/06 11:52:56;;;;;;;19.05;6.43;;;;;;;19.09;53.99;101813.25;5103802;27;20059;-74
2022/02/06 11:55:43;;;;;;;12.90;2.35;;;;;;;19.15;54.34;101821.25;5105493;28;20043;-74
2022/02/06 11:58:26;;;;;;;19.38;3.72;;;;;;;19.14;54.61;101818.59;5121706;28;20039;-74
2022/02/06 12:01:25;;;;;;;16.95;2.58;;;;;;;19.21;54.58;101815.00;5107078;27;20039;-75
2022/02/06 12:04:05;;;;;;;19.75;4.85;;;;;;;19.08;54.59;101814.13;5104892;27;20101;-75
2022/02/06 12:06:54;;;;;;;20.13;3.63;;;;;;;18.97;54.69;101808.78;5096540;27;20194;-74
2022/02/06 12:09:24;;;;;;;20.33;3.90;;;;;;;18.88;55.07;101808.81;5103381;28;20659;-75
2022/02/06 12:12:20;;;;;;;16.23;2.33;;;;;;;18.77;55.43;101810.63;5096237;28;20118;-75
2022/02/06 12:14:53;;;;;;;14.35;3.10;;;;;;;18.69;55.82;101801.72;5103417;27;20396;-75
2022/02/06 12:17:24;;;;;;;16.25;3.75;;;;;;;18.70;56.02;101806.19;5104935;28;20040;-74
2022/02/06 12:20:19;;;;;;;16.80;2.38;;;;;;;18.67;56.22;101803.50;5105032;28;20482;-75
2022/02/06 12:22:48;;;;;;;15.30;2.97;;;;;;;18.62;56.31;101797.28;5108955;28;20054;-75
2022/02/06 12:25:21;;;;;;;21.55;2.55;;;;;;;18.67;56.14;101796.38;5111005;27;20194;-74
2022/02/06 12:27:51;;;;;;;14.68;4.00;;;;;;;18.65;55.88;101794.56;5127011;27;20139;-74
2022/02/06 12:30:25;;;;;;;14.35;2.35;;;;;;;18.65;55.63;101798.13;5111516;27;20459;-75
2022/02/06 12:33:13;;;;;;;14.02;1.90;;;;;;;18.66;55.90;101807.06;5110216;27;20793;-75
2022/02/06 12:38:29;;;;;;;18.42;3.95;;;;;;;18.72;56.14;101796.34;5109587;28;20560;-76
2022/02/06 12:40:57;;;;;;;16.63;2.80;;;;;;;18.70;56.36;101806.19;5111237;27;20040;-74
2022/02/06 12:43:29;;;;;;;14.95;2.58;;;;;;;18.58;56.58;101803.50;5109911;28;20043;-75
2022/02/06 12:45:57;;;;;;;11.18;2.33;;;;;;;18.49;56.74;101806.16;5093127;28;20040;-75
2022/02/06 12:48:25;;;;;;;16.25;3.03;;;;;;;18.43;57.10;101808.84;5104987;28;20123;-74
2022/02/06 12:50:55;;;;;;;13.45;2.10;;;;;;;18.39;57.44;101810.59;5108370;28;20035;-74
2022/02/06 12:53:23;;;;;;;19.35;6.72;;;;;;;18.42;57.64;101807.94;5109166;27;20125;-74
2022/02/06 12:55:52;;;;;;;17.10;7.18;;;;;;;18.32;58.15;101809.69;5108653;28;20047;-74
2022/02/06 12:58:28;;;;;;;9.13;2.03;;;;;;;18.26;58.69;101820.41;5110258;28;20059;-74
2022/02/06 13:00:56;;;;;;;11.50;2.38;;;;;;;18.04;59.51;101823.94;5108733;28;20137;-74
2022/02/06 13:03:28;;;;;;;17.75;6.60;;;;;;;17.87;60.05;101820.31;5110540;27;20036;-75
2022/02/06 13:06:02;;;;;;;13.23;2.70;;;;;;;17.85;60.19;101819.44;5109225;28;20695;-75
2022/02/06 13:08:32;;;;;;;11.25;2.20;;;;;;;17.75;60.50;101820.28;5107721;28;20067;-75
2022/02/06 13:11:04;;;;;;;17.05;2.40;;;;;;;17.69;60.76;101825.59;5109534;28;20683;-74
2022/02/06 13:13:40;;;;;;;12.52;2.03;;;;;;;17.63;61.14;101822.91;5087742;28;20079;-75
2022/02/06 13:24:27;;;;;;;8.40;2.00;;;;;;;17.58;62.06;101812.19;5088089;28;20056;-74
2022/02/06 13:27:19;;;;;;;12.70;3.58;;;;;;;17.52;62.22;101821.03;5089882;28;20052;-74